Terminal Aerodrome Forecast
Issued by NWS Brownsville, TX

Home | Current Version | Previous Version | Text Only | Print | Product List | Glossary On
Versions: 1 2 3 4 5 6 7 8 9 10 11 12 13 14 15 16 17 18 19 20 21
276
FTUS44 KBRO 091122
TAFBRO
TAF
KBRO 091122Z 0912/1012 33014G22KT P6SM OVC014
     FM091500 33015G21KT P6SM OVC012
     FM092000 32011G17KT P6SM OVC012
     FM100000 33009G15KT P6SM OVC012
      TEMPO 1003/1006 OVC008
     FM100600 32009KT P6SM OVC015
     FM101100 32009G14KT P6SM OVC015=

USA.gov is the U.S. government's official web portal to all federal, state and local government web resources and services.